createdAt,value
2022-12-08T00:01:15.325Z,98321.59
2022-12-08T00:03:43.233Z,98318.19
2022-12-08T00:06:38.052Z,98324.22
2022-12-08T00:09:23.206Z,98327.50
2022-12-08T00:11:58.644Z,98323.97
2022-12-08T00:14:29.610Z,98320.50
2022-12-08T00:16:57.372Z,98328.25
2022-12-08T00:19:25.894Z,98321.25
2022-12-08T00:21:53.617Z,98320.44
2022-12-08T00:24:22.093Z,98317.91
2022-12-08T00:26:49.424Z,98320.53
2022-12-08T00:29:17.932Z,98320.53
2022-12-08T00:31:45.141Z,98327.47
2022-12-08T00:34:16.372Z,98327.47
2022-12-08T00:36:43.741Z,98333.47
2022-12-08T00:39:11.823Z,98329.16
2022-12-08T00:41:57.645Z,98339.63
2022-12-08T00:44:24.949Z,98331.03
2022-12-08T00:46:51.844Z,98333.66
2022-12-08T00:49:19.300Z,98333.69
2022-12-08T00:51:46.567Z,98334.56
2022-12-08T00:54:13.806Z,98335.50
2022-12-08T00:56:40.689Z,98338.97
2022-12-08T00:59:08.098Z,98336.41
2022-12-08T01:01:35.400Z,98347.66
2022-12-08T01:04:05.179Z,98345.97
2022-12-08T01:06:32.545Z,98353.84
2022-12-08T01:08:59.616Z,98353.91
2022-12-08T01:11:26.481Z,98350.50
2022-12-08T01:13:54.773Z,98351.34
2022-12-08T01:16:24.124Z,98351.38
2022-12-08T01:18:51.492Z,98343.63
2022-12-08T01:21:18.760Z,98354.03
2022-12-08T01:23:46.743Z,98351.47
2022-12-08T01:26:15.613Z,98358.44
2022-12-08T01:28:43.783Z,98362.78
2022-12-08T01:31:16.924Z,98356.81
2022-12-08T01:33:45.016Z,98360.34
2022-12-08T01:36:21.402Z,98365.66
2022-12-08T01:38:49.012Z,98366.50
2022-12-08T01:41:18.166Z,98367.44
2022-12-08T01:44:04.913Z,98364.94
2022-12-08T01:46:34.302Z,98359.75
2022-12-08T01:49:10.907Z,98358.88
2022-12-08T01:52:03.988Z,98356.28
2022-12-08T01:54:56.838Z,98362.38
2022-12-08T01:57:37.624Z,98359.84
2022-12-08T02:00:10.892Z,98371.13
2022-12-08T02:02:54.436Z,98360.75
2022-12-08T02:05:25.429Z,98360.75
2022-12-08T02:07:53.411Z,98357.31
2022-12-08T02:10:23.340Z,98367.69
2022-12-08T02:12:53.738Z,98361.66
2022-12-08T02:15:27.673Z,98372.03
2022-12-08T02:18:04.356Z,98364.31
2022-12-08T02:20:50.763Z,98374.69
2022-12-08T02:23:27.245Z,98368.66
2022-12-08T02:26:25.058Z,98373.84
2022-12-08T02:29:23.130Z,98381.69
2022-12-08T02:32:41.885Z,98376.56
2022-12-08T02:35:11.349Z,98376.56
2022-12-08T02:37:43.521Z,98376.56
2022-12-08T02:40:24.584Z,98380.00
2022-12-08T02:43:07.912Z,98380.94
2022-12-08T02:45:45.032Z,98381.78
2022-12-08T02:48:12.477Z,98379.22
2022-12-08T02:50:39.218Z,98373.19
2022-12-08T02:55:56.038Z,98375.78
2022-12-08T02:58:41.319Z,98377.56
2022-12-08T03:01:46.903Z,98377.56
2022-12-08T03:04:22.755Z,98381.94
2022-12-08T03:06:55.437Z,98390.59
2022-12-08T03:09:33.920Z,98383.69
2022-12-08T03:12:16.419Z,98392.34
2022-12-08T03:14:48.389Z,98389.75
2022-12-08T03:17:18.957Z,98387.16
2022-12-08T03:19:48.819Z,98383.72
2022-12-08T03:22:19.904Z,98381.16
2022-12-08T03:24:47.370Z,98382.91
2022-12-08T03:27:24.057Z,98379.50
2022-12-08T03:29:54.098Z,98379.50
2022-12-08T03:32:30.697Z,98385.50
2022-12-08T03:35:01.349Z,98382.91
2022-12-08T03:37:28.768Z,98382.94
2022-12-08T03:39:56.192Z,98385.59
2022-12-08T03:42:23.302Z,98390.72
2022-12-08T03:44:50.410Z,98388.13
2022-12-08T03:47:17.297Z,98383.78
2022-12-08T03:49:44.372Z,98390.72
2022-12-08T03:52:11.177Z,98388.97
2022-12-08T03:54:38.313Z,98382.06
2022-12-08T03:57:05.097Z,98383.78
2022-12-08T03:59:32.240Z,98382.88
2022-12-08T04:01:59.117Z,98384.53
2022-12-08T04:04:26.296Z,98383.66
2022-12-08T04:06:53.033Z,98377.59
2022-12-08T04:09:20.092Z,98391.41
2022-12-08T04:11:46.876Z,98389.63
2022-12-08T04:14:14.494Z,98394.78
2022-12-08T04:16:41.636Z,98401.66
2022-12-08T04:19:08.687Z,98402.50
2022-12-08T04:21:35.521Z,98399.88
2022-12-08T04:24:02.970Z,98399.81
2022-12-08T04:26:29.824Z,98400.63
2022-12-08T04:28:56.932Z,98400.59
2022-12-08T04:31:23.791Z,98399.66
2022-12-08T04:33:50.929Z,98391.81
2022-12-08T04:36:17.704Z,98403.78
2022-12-08T04:38:44.909Z,98394.19
2022-12-08T04:41:11.676Z,98401.06
2022-12-08T04:43:38.732Z,98400.16
2022-12-08T04:46:09.316Z,98396.63
2022-12-08T04:48:41.034Z,98402.63
2022-12-08T04:51:12.152Z,98388.72
2022-12-08T04:53:44.841Z,98395.59
2022-12-08T04:56:15.162Z,98392.94
2022-12-08T04:58:42.204Z,98386.88
2022-12-08T05:01:09.510Z,98396.31
2022-12-08T05:03:36.852Z,98397.13
2022-12-08T05:06:04.645Z,98396.28
2022-12-08T05:08:32.464Z,98397.06
2022-12-08T05:11:07.264Z,98405.69
2022-12-08T05:13:34.448Z,98403.03
2022-12-08T05:16:09.969Z,98398.69
2022-12-08T05:18:37.482Z,98399.56
2022-12-08T05:21:04.957Z,98394.31
2022-12-08T05:23:32.704Z,98402.03
2022-12-08T05:26:00.626Z,98405.44
2022-12-08T05:28:43.893Z,98409.78
2022-12-08T05:31:13.644Z,98408.84
2022-12-08T05:33:40.978Z,98418.28
2022-12-08T05:36:09.013Z,98412.19
2022-12-08T05:38:36.152Z,98418.22
2022-12-08T05:41:02.941Z,98413.00
2022-12-08T05:43:30.057Z,98413.00
2022-12-08T05:45:56.982Z,98420.72
2022-12-08T05:48:24.206Z,98424.16
2022-12-08T05:50:51.862Z,98421.56
2022-12-08T05:53:20.675Z,98424.16
2022-12-08T05:55:48.249Z,98425.84
2022-12-08T05:58:18.109Z,98431.03
2022-12-08T06:00:46.630Z,98437.06
2022-12-08T06:03:15.436Z,98436.22
2022-12-08T06:05:44.076Z,98434.47
2022-12-08T06:08:11.739Z,98438.81
2022-12-08T06:10:43.244Z,98435.28
2022-12-08T06:13:10.767Z,98435.25
2022-12-08T06:15:38.890Z,98445.63
2022-12-08T06:18:07.213Z,98448.22
2022-12-08T06:20:34.996Z,98452.50
2022-12-08T06:23:03.592Z,98445.53
2022-12-08T06:25:30.860Z,98443.78
2022-12-08T06:27:58.027Z,98452.41
2022-12-08T06:30:24.793Z,98455.00
2022-12-08T06:32:51.898Z,98448.91
2022-12-08T06:35:18.745Z,98452.34
2022-12-08T06:37:45.853Z,98458.44
2022-12-08T06:40:13.084Z,98467.09
2022-12-08T06:42:47.114Z,98467.06
2022-12-08T06:45:18.167Z,98475.69
2022-12-08T06:47:45.330Z,98475.69
2022-12-08T06:50:13.790Z,98479.13
2022-12-08T06:52:54.204Z,98475.66
2022-12-08T06:55:50.944Z,98478.22
2022-12-08T06:58:11.196Z,98484.19
2022-12-08T07:00:38.400Z,98482.47
2022-12-08T07:03:07.349Z,98486.72
2022-12-08T07:05:34.902Z,98484.03
2022-12-08T07:08:02.193Z,98472.78
2022-12-08T07:10:29.286Z,98476.13
2022-12-08T07:12:56.751Z,98482.94
2022-12-08T07:15:23.629Z,98479.41
2022-12-08T07:17:56.295Z,98488.03
2022-12-08T07:20:26.293Z,98480.13
2022-12-08T07:22:54.283Z,98477.38
2022-12-08T07:25:21.340Z,98478.25
2022-12-08T07:27:50.186Z,98477.28
2022-12-08T07:30:17.720Z,98485.00
2022-12-08T07:32:45.526Z,98481.47
2022-12-08T07:35:12.404Z,98484.91
2022-12-08T07:37:39.636Z,98487.47
2022-12-08T07:40:08.604Z,98491.69
2022-12-08T07:42:35.899Z,98490.75
2022-12-08T07:45:02.793Z,98493.25
2022-12-08T07:47:29.940Z,98494.84
2022-12-08T07:49:56.763Z,98492.03
2022-12-08T07:52:24.009Z,98495.25
2022-12-08T07:54:50.809Z,98499.31
2022-12-08T07:57:17.864Z,98494.63
2022-12-08T07:59:44.600Z,98490.63
2022-12-08T08:02:25.975Z,98491.94
2022-12-08T08:04:53.618Z,98483.53
2022-12-08T08:07:20.912Z,98488.44
2022-12-08T08:09:47.644Z,98495.31
2022-12-08T08:12:31.670Z,98479.97
2022-12-08T08:15:00.153Z,98482.88
2022-12-08T08:17:28.220Z,98477.44
2022-12-08T08:19:55.168Z,98487.06
2022-12-08T08:22:22.400Z,98489.25
2022-12-08T08:24:49.157Z,98486.78
2022-12-08T08:27:16.289Z,98484.53
2022-12-08T08:29:43.088Z,98478.16
2022-12-08T08:32:10.489Z,98477.72
2022-12-08T08:34:37.368Z,98493.03
2022-12-08T08:37:04.806Z,98485.94
2022-12-08T08:39:32.082Z,98475.63
2022-12-08T08:41:59.322Z,98486.78
2022-12-08T08:44:26.291Z,98487.53
2022-12-08T08:46:53.545Z,98486.47
2022-12-08T08:49:20.893Z,98479.25
2022-12-08T08:51:48.206Z,98471.22
2022-12-08T08:54:15.399Z,98467.56
2022-12-08T08:56:42.528Z,98476.75
2022-12-08T08:59:10.470Z,98463.94
2022-12-08T09:01:37.671Z,98476.66
2022-12-08T09:04:04.579Z,98473.63
2022-12-08T09:06:31.999Z,98475.88
2022-12-08T09:08:58.801Z,98477.44
2022-12-08T09:11:26.002Z,98483.00
2022-12-08T09:13:54.377Z,98488.59
2022-12-08T09:16:22.093Z,98480.91
2022-12-08T09:18:52.175Z,98482.41
2022-12-08T09:21:23.132Z,98487.53
2022-12-08T09:23:51.275Z,98485.97
2022-12-08T09:26:18.457Z,98476.50
2022-12-08T09:28:46.737Z,98473.94
2022-12-08T09:31:14.659Z,98471.38
2022-12-08T09:33:42.141Z,98482.41
2022-12-08T09:36:11.049Z,98478.78
2022-12-08T09:38:38.896Z,98464.22
2022-12-08T09:41:16.893Z,98463.81
2022-12-08T09:44:02.681Z,98482.19
2022-12-08T09:46:32.260Z,98470.34
2022-12-08T09:49:02.237Z,98460.81
2022-12-08T09:51:38.829Z,98465.13
2022-12-08T09:54:22.495Z,98462.13
2022-12-08T09:56:55.059Z,98462.06
2022-12-08T09:59:32.816Z,98456.88
2022-12-08T10:02:11.660Z,98451.06
2022-12-08T10:04:39.277Z,98446.81
2022-12-08T10:07:25.371Z,98444.16
2022-12-08T10:10:17.008Z,98454.97
2022-12-08T10:12:51.996Z,98448.22
2022-12-08T10:15:44.261Z,98452.81
2022-12-08T10:18:23.186Z,98447.97
2022-12-08T10:20:52.737Z,98442.31
2022-12-08T10:23:29.874Z,98435.56
2022-12-08T10:26:02.544Z,98445.66
2022-12-08T10:28:29.875Z,98440.34
2022-12-08T10:30:56.874Z,98437.34
2022-12-08T10:33:24.008Z,98438.00
2022-12-08T10:35:54.568Z,98436.00
2022-12-08T10:38:36.947Z,98439.03
2022-12-08T10:41:11.231Z,98433.34
2022-12-08T10:43:43.806Z,98436.41
2022-12-08T10:46:22.264Z,98437.22
2022-12-08T10:48:49.650Z,98440.00
2022-12-08T10:51:40.192Z,98433.19
2022-12-08T10:54:28.264Z,98432.09
2022-12-08T10:56:57.245Z,98425.00
2022-12-08T10:59:27.612Z,98418.78
2022-12-08T11:01:56.604Z,98421.66
2022-12-08T11:04:36.192Z,98411.13
2022-12-08T11:07:04.788Z,98415.25
2022-12-08T11:09:40.096Z,98411.03
2022-12-08T11:12:15.752Z,98414.63
2022-12-08T11:14:42.773Z,98412.09
2022-12-08T11:17:13.014Z,98408.88
2022-12-08T11:19:42.537Z,98409.53
2022-12-08T11:22:32.607Z,98402.88
2022-12-08T11:25:10.684Z,98405.34
2022-12-08T11:27:43.666Z,98408.38
2022-12-08T11:30:15.407Z,98410.06
2022-12-08T11:32:44.987Z,98407.03
2022-12-08T11:35:24.181Z,98407.16
2022-12-08T11:37:51.153Z,98414.34
2022-12-08T11:40:29.699Z,98407.22
2022-12-08T11:43:21.302Z,98403.31
2022-12-08T11:45:59.048Z,98408.94
2022-12-08T11:49:05.889Z,98408.88
2022-12-08T11:51:36.646Z,98408.94
2022-12-08T11:54:24.872Z,98408.34
2022-12-08T11:56:55.721Z,98409.72
2022-12-08T11:59:31.624Z,98400.22
2022-12-08T12:02:01.473Z,98411.22
2022-12-08T12:04:31.008Z,98399.91
2022-12-08T12:07:26.567Z,98398.09
2022-12-08T12:10:31.950Z,98392.50
2022-12-08T12:12:58.968Z,98398.81
2022-12-08T12:15:41.013Z,98405.13
2022-12-08T12:18:19.069Z,98384.69
2022-12-08T12:21:07.772Z,98387.13
2022-12-08T12:23:44.427Z,98387.41
2022-12-08T12:26:35.094Z,98382.34
2022-12-08T12:29:13.084Z,98385.03
2022-12-08T12:31:47.332Z,98388.63
2022-12-08T12:34:22.534Z,98380.00
2022-12-08T12:37:13.104Z,98376.72
2022-12-08T12:39:49.220Z,98375.09
2022-12-08T12:42:38.192Z,98372.72
2022-12-08T12:45:17.089Z,98368.53
2022-12-08T12:47:56.236Z,98372.19
2022-12-08T12:50:38.622Z,98367.09
2022-12-08T12:53:26.719Z,98374.03
2022-12-08T12:56:01.438Z,98349.66
2022-12-08T12:58:28.191Z,98359.78
2022-12-08T13:01:10.324Z,98352.69
2022-12-08T13:03:49.947Z,98364.03
2022-12-08T13:06:32.349Z,98361.47
2022-12-08T13:09:00.034Z,98365.28
2022-12-08T13:11:27.382Z,98370.69
2022-12-08T13:14:05.254Z,98371.72
2022-12-08T13:16:34.911Z,98367.31
2022-12-08T13:19:10.031Z,98363.06
2022-12-08T13:21:39.013Z,98367.13
2022-12-08T13:24:19.822Z,98360.84
2022-12-08T13:27:07.815Z,98363.06
2022-12-08T13:29:35.878Z,98359.13
2022-12-08T13:32:02.956Z,98360.13
2022-12-08T13:34:51.450Z,98347.06
2022-12-08T13:37:53.909Z,98355.06
2022-12-08T13:40:25.649Z,98352.94
2022-12-08T13:43:16.913Z,98355.22
2022-12-08T13:57:37.543Z,98354.66
2022-12-08T14:00:14.797Z,98350.72
2022-12-08T14:02:47.784Z,98345.78
2022-12-08T14:05:19.505Z,98348.59
2022-12-08T14:07:49.729Z,98364.59
2022-12-08T14:10:21.196Z,98351.00
2022-12-08T14:12:56.139Z,98355.69
2022-12-08T14:15:25.846Z,98358.59
2022-12-08T14:17:57.340Z,98364.16
2022-12-08T14:20:30.035Z,98359.19
2022-12-08T14:23:01.267Z,98362.91
2022-12-08T14:25:29.811Z,98351.88
2022-12-08T14:28:01.265Z,98352.09
2022-12-08T14:30:36.302Z,98364.44
2022-12-08T14:33:04.894Z,98358.50
2022-12-08T14:35:37.618Z,98359.38
2022-12-08T14:38:11.599Z,98357.69
2022-12-08T14:40:41.693Z,98359.50
2022-12-08T14:43:13.607Z,98353.53
2022-12-08T14:45:40.807Z,98355.31
2022-12-08T14:48:38.589Z,98357.16
2022-12-08T14:51:05.935Z,98356.31
2022-12-08T14:53:44.580Z,98362.34
2022-12-08T14:56:23.276Z,98359.88
2022-12-08T14:59:03.203Z,98355.50
2022-12-08T15:01:30.795Z,98353.81
2022-12-08T15:04:21.894Z,98353.00
2022-12-08T15:07:01.138Z,98350.50
2022-12-08T15:09:39.102Z,98352.19
2022-12-08T15:12:31.858Z,98350.50
2022-12-08T15:15:02.528Z,98344.44
2022-12-08T15:17:40.933Z,98348.78
2022-12-08T15:20:30.185Z,98345.41
2022-12-08T15:23:02.628Z,98343.66
2022-12-08T15:25:29.461Z,98344.53
2022-12-08T15:27:58.075Z,98338.53
2022-12-08T15:30:26.624Z,98345.44
2022-12-08T15:32:54.349Z,98339.31
2022-12-08T15:35:21.453Z,98342.75
2022-12-08T15:37:48.652Z,98342.75
2022-12-08T15:40:21.252Z,98346.28
2022-12-08T15:42:49.250Z,98350.69
2022-12-08T15:45:17.428Z,98337.66
2022-12-08T15:47:45.545Z,98346.41
2022-12-08T15:50:18.598Z,98343.81
2022-12-08T15:52:46.131Z,98340.38
2022-12-08T15:55:18.920Z,98345.47
2022-12-08T16:00:55.546Z,98346.16
2022-12-08T16:09:16.079Z,98340.44
2022-12-08T16:12:07.283Z,98340.34
2022-12-08T16:17:23.491Z,98342.94
2022-12-08T16:19:50.654Z,98348.03
2022-12-08T16:25:18.924Z,98346.22
2022-12-08T16:30:34.868Z,98345.34
2022-12-08T16:33:01.897Z,98350.53
2022-12-08T16:35:29.179Z,98345.34
2022-12-08T16:37:55.970Z,98346.16
2022-12-08T16:40:23.230Z,98343.56
2022-12-08T16:42:50.487Z,98358.31
2022-12-08T16:45:20.830Z,98354.81
2022-12-08T16:47:50.226Z,98349.59
2022-12-08T16:50:23.176Z,98348.75
2022-12-08T16:52:50.912Z,98341.00
2022-12-08T16:55:19.681Z,98348.94
2022-12-08T16:57:47.789Z,98347.25
2022-12-08T17:00:20.716Z,98346.41
2022-12-08T17:02:48.529Z,98346.53
2022-12-08T17:05:18.753Z,98350.88
2022-12-08T17:07:47.659Z,98358.72
2022-12-08T17:10:16.202Z,98360.63
2022-12-08T17:12:44.101Z,98355.47
2022-12-08T17:15:15.333Z,98352.06
2022-12-08T17:17:42.379Z,98352.94
2022-12-08T17:20:16.226Z,98343.47
2022-12-08T17:22:43.416Z,98341.75
2022-12-08T17:25:10.838Z,98334.78
2022-12-08T17:27:37.975Z,98340.00
2022-12-08T17:30:07.154Z,98341.69
2022-12-08T17:32:34.208Z,98331.38
2022-12-08T17:35:01.398Z,98344.47
2022-12-08T17:37:28.240Z,98334.94
2022-12-08T17:39:55.329Z,98332.28
2022-12-08T17:42:25.982Z,98334.06
2022-12-08T17:44:53.849Z,98335.72
2022-12-08T17:47:21.164Z,98329.56
2022-12-08T17:49:48.282Z,98328.75
2022-12-08T17:52:15.157Z,98333.13
2022-12-08T17:54:42.297Z,98336.59
2022-12-08T17:57:09.176Z,98333.97
2022-12-08T17:59:36.279Z,98329.56
2022-12-08T18:02:04.404Z,98329.56
2022-12-08T18:04:32.069Z,98322.69
2022-12-08T18:07:01.270Z,98320.09
2022-12-08T18:09:31.001Z,98320.00
2022-12-08T18:11:57.922Z,98318.25
2022-12-08T18:14:25.089Z,98307.81
2022-12-08T18:16:52.059Z,98308.69
2022-12-08T18:19:19.228Z,98307.94
2022-12-08T18:21:46.118Z,98302.81
2022-12-08T18:24:18.981Z,98309.94
2022-12-08T18:26:47.028Z,98305.69
2022-12-08T18:29:14.301Z,98315.38
2022-12-08T18:31:41.106Z,98310.28
2022-12-08T18:34:08.196Z,98312.13
2022-12-08T18:36:35.217Z,98313.97
2022-12-08T18:39:07.202Z,98312.34
2022-12-08T18:41:37.226Z,98307.19
2022-12-08T18:44:04.580Z,98294.16
2022-12-08T18:46:31.598Z,98299.28
2022-12-08T18:48:59.574Z,98308.88
2022-12-08T18:51:26.510Z,98296.84
2022-12-08T18:53:53.710Z,98303.00
2022-12-08T18:56:22.269Z,98298.72
2022-12-08T18:58:49.633Z,98291.94
2022-12-08T19:01:16.751Z,98291.97
2022-12-08T19:04:04.729Z,98290.38
2022-12-08T19:06:31.297Z,98292.19
2022-12-08T19:08:58.483Z,98288.75
2022-12-08T19:11:27.539Z,98293.19
2022-12-08T19:13:55.675Z,98282.91
2022-12-08T19:16:23.055Z,98294.25
2022-12-08T19:18:50.221Z,98290.09
2022-12-08T19:21:17.359Z,98280.72
2022-12-08T19:23:44.492Z,98282.63
2022-12-08T19:26:12.193Z,98284.59
2022-12-08T19:28:41.093Z,98279.59
2022-12-08T19:31:09.770Z,98278.13
2022-12-08T19:33:37.838Z,98271.38
2022-12-08T19:36:10.030Z,98268.13
2022-12-08T19:38:56.438Z,98270.91
2022-12-08T19:41:42.759Z,98271.91
2022-12-08T19:44:40.538Z,98265.97
2022-12-08T19:47:07.480Z,98275.53
2022-12-08T19:49:34.877Z,98267.75
2022-12-08T19:52:01.821Z,98259.16
2022-12-08T19:54:28.973Z,98255.69
2022-12-08T19:56:56.021Z,98247.03
2022-12-08T19:59:26.252Z,98255.69
2022-12-08T20:01:55.828Z,98252.19
2022-12-08T20:04:24.721Z,98250.41
2022-12-08T20:06:53.645Z,98246.97
2022-12-08T20:09:21.554Z,98246.88
2022-12-08T20:11:48.381Z,98250.25
2022-12-08T20:14:15.513Z,98247.59
2022-12-08T20:16:42.415Z,98240.59
2022-12-08T20:19:09.593Z,98248.28
2022-12-08T20:21:36.425Z,98249.09
2022-12-08T20:24:04.721Z,98252.44
2022-12-08T20:26:31.849Z,98248.06
2022-12-08T20:28:59.064Z,98244.53
2022-12-08T20:31:29.001Z,98239.22
2022-12-08T20:33:56.203Z,98245.25
2022-12-08T20:36:24.668Z,98244.34
2022-12-08T20:38:53.282Z,98250.38
2022-12-08T20:41:23.369Z,98249.56
2022-12-08T20:43:51.389Z,98254.81
2022-12-08T20:46:20.327Z,98257.34
2022-12-08T20:48:48.139Z,98246.03
2022-12-08T20:51:17.459Z,98243.34
2022-12-08T20:53:45.681Z,98230.25
2022-12-08T20:56:18.060Z,98239.63
2022-12-08T20:58:46.050Z,98244.78
2022-12-08T21:01:16.294Z,98249.13
2022-12-08T21:03:45.339Z,98249.97
2022-12-08T21:06:13.074Z,98243.00
2022-12-08T21:08:41.218Z,98247.28
2022-12-08T21:11:09.719Z,98245.50
2022-12-08T21:13:38.210Z,98245.50
2022-12-08T21:16:05.648Z,98246.34
2022-12-08T21:18:38.869Z,98254.13
2022-12-08T21:21:12.271Z,98252.38
2022-12-08T21:23:40.525Z,98249.75
2022-12-08T21:26:20.028Z,98241.94
2022-12-08T21:28:47.562Z,98243.63
2022-12-08T21:31:17.453Z,98231.56
2022-12-08T21:33:45.172Z,98227.28
2022-12-08T21:36:14.970Z,98227.19
2022-12-08T21:38:43.316Z,98225.34
2022-12-08T21:41:14.583Z,98214.09
2022-12-08T21:43:43.315Z,98216.69
2022-12-08T21:46:17.403Z,98218.47
2022-12-08T21:48:44.663Z,98226.28
2022-12-08T21:51:11.916Z,98217.75
2022-12-08T21:53:39.303Z,98203.16
2022-12-08T21:56:09.850Z,98202.34
2022-12-08T21:58:37.021Z,98198.81
2022-12-08T22:01:12.031Z,98196.31
2022-12-08T22:03:40.589Z,98191.97
2022-12-08T22:06:09.546Z,98193.75
2022-12-08T22:08:36.894Z,98197.34
2022-12-08T22:11:04.544Z,98190.38
2022-12-08T22:13:35.047Z,98185.13
2022-12-08T22:16:05.022Z,98179.06
2022-12-08T22:18:33.822Z,98172.09
2022-12-08T22:21:00.855Z,98173.78
2022-12-08T22:23:28.861Z,98167.72
2022-12-08T22:26:00.187Z,98175.56
2022-12-08T22:28:30.437Z,98183.31
2022-12-08T22:30:57.436Z,98186.72
2022-12-08T22:33:24.830Z,98181.53
2022-12-08T22:36:03.431Z,98189.34
2022-12-08T22:38:33.972Z,98183.31
2022-12-08T22:41:00.962Z,98183.34
2022-12-08T22:43:28.682Z,98179.94
2022-12-08T22:45:55.605Z,98175.63
2022-12-08T22:48:22.787Z,98174.72
2022-12-08T22:50:49.681Z,98172.94
2022-12-08T22:53:16.822Z,98165.06
2022-12-08T22:55:44.750Z,98167.59
2022-12-08T22:58:12.309Z,98167.59
2022-12-08T23:00:39.472Z,98165.81
2022-12-08T23:03:06.983Z,98151.06
2022-12-08T23:05:35.375Z,98152.72
2022-12-08T23:08:03.556Z,98155.34
2022-12-08T23:10:31.426Z,98157.06
2022-12-08T23:13:03.544Z,98162.19
2022-12-08T23:15:31.595Z,98167.47
2022-12-08T23:17:59.249Z,98170.94
2022-12-08T23:20:26.222Z,98167.50
2022-12-08T23:22:53.449Z,98160.56
2022-12-08T23:25:20.455Z,98172.81
2022-12-08T23:27:48.062Z,98160.69
2022-12-08T23:30:15.327Z,98162.41
2022-12-08T23:32:42.836Z,98165.88
2022-12-08T23:35:10.136Z,98175.53
2022-12-08T23:37:37.685Z,98151.22
2022-12-08T23:40:05.670Z,98165.97
2022-12-08T23:42:33.205Z,98167.00
2022-12-08T23:45:00.369Z,98159.22
2022-12-08T23:47:27.602Z,98154.88
2022-12-08T23:49:54.408Z,98155.75
2022-12-08T23:52:21.531Z,98150.63
2022-12-08T23:54:50.743Z,98148.94
2022-12-08T23:57:17.977Z,98146.34
2022-12-08T23:59:45.046Z,98148.94
